Jacinto, Nebraska
Current Conditions -  °F | °C
As of 4:55 PM on Sunday 21 Dec 2014 (Local Time) from KIBM Reporting Station
Clear Clear  
Wind Chill: 35°   Ceiling: Unl
Heat Index: 41°   Visibility: 10mi
Dew Point: 31°   Wind: 8mph
Humidity: 68%   Direction: 300°WNW
Pressure: 29.5"   Gusts: NA
Location:  41.202°N, 103.47°W
Report Text: KIBM 212355Z AUTO 30007KT 10SM CLR 05/M01 A2950 RMK AO2 T00481007 10081 20048
Loading
Personal Weather Stations






























Interactive Weather Map New forecast layout! Learn more

10-Day Weather Forecast

Advertisements
Track Severe Weather on mobile